Terminal Aerodrome Forecast
Issued by NWS

Home | Current Version | Previous Version | Text Only | Print | Product List | Glossary On
Versions: 1 2 3 4 5 6 7 8 9 10 11 12 13 14
660
FTUS44 KLIX 241123
TAFGPT
TAF
KGPT 241123Z 2412/2512 VRB04KT P6SM SHRA SCT015 BKN040
      TEMPO 2412/2415 2SM TSRA OVC020CB
     FM241500 25006KT P6SM BKN040
      TEMPO 2418/2422 4SM TSRA OVC025CB
     FM250000 VRB04KT P6SM BKN080
     FM250800 VRB04KT P6SM BKN020=

USA.gov is the U.S. government's official web portal to all federal, state and local government web resources and services.